TimeCST,TemperatureF,Dew PointF,Humidity,Sea Level PressureIn,VisibilityMPH,Wind Direction,Wind SpeedMPH,Gust SpeedMPH,PrecipitationIn,Events,Conditions,WindDirDegrees,DateUTC
12:54 AM,21.9,14.0,72,30.01,10.0,West,10.4,-,0.00,,Overcast,270,2013-02-23 06:54:00
1:54 AM,21.9,14.0,72,30.01,10.0,WSW,9.2,-,N/A,,Overcast,250,2013-02-23 07:54:00
2:54 AM,21.0,14.0,74,30.00,10.0,WSW,10.4,-,N/A,,Overcast,250,2013-02-23 08:54:00
3:23 AM,19.0,12.9,77,29.96,10.0,West,8.1,-,N/A,,Partly Cloudy,260,2013-02-23 09:23:00
3:54 AM,17.1,12.0,81,30.00,10.0,WSW,8.1,-,N/A,,Partly Cloudy,250,2013-02-23 09:54:00
4:54 AM,16.0,10.9,81,30.01,10.0,West,10.4,-,N/A,,Clear,260,2013-02-23 10:54:00
5:54 AM,12.9,8.1,81,30.02,10.0,WSW,6.9,-,N/A,,Clear,250,2013-02-23 11:54:00
6:54 AM,12.0,8.1,84,30.01,8.0,West,3.5,-,N/A,,Partly Cloudy,260,2013-02-23 12:54:00
7:54 AM,12.0,8.1,84,30.01,5.0,WSW,4.6,-,N/A,,Partly Cloudy,240,2013-02-23 13:54:00
8:54 AM,14.0,10.0,84,30.01,6.0,SW,5.8,-,N/A,,Partly Cloudy,230,2013-02-23 14:54:00
9:54 AM,19.0,12.0,74,30.01,7.0,WSW,5.8,-,N/A,,Clear,240,2013-02-23 15:54:00
10:54 AM,21.9,12.9,68,30.00,8.0,SW,5.8,-,N/A,,Scattered Clouds,230,2013-02-23 16:54:00
11:54 AM,24.1,14.0,65,29.99,10.0,SW,4.6,-,N/A,,Mostly Cloudy,220,2013-02-23 17:54:00
12:54 PM,28.0,16.0,61,29.97,10.0,WSW,9.2,-,N/A,,Mostly Cloudy,240,2013-02-23 18:54:00
1:54 PM,30.9,17.1,57,29.95,10.0,WSW,10.4,-,N/A,,Mostly Cloudy,240,2013-02-23 19:54:00
2:54 PM,30.9,18.0,59,29.95,10.0,WSW,6.9,-,N/A,,Scattered Clouds,240,2013-02-23 20:54:00
3:54 PM,32.0,17.1,54,29.94,10.0,SW,11.5,-,N/A,,Partly Cloudy,220,2013-02-23 21:54:00
4:54 PM,32.0,18.0,56,29.94,10.0,South,5.8,-,N/A,,Partly Cloudy,190,2013-02-23 22:54:00
5:54 PM,28.9,18.0,64,29.94,10.0,South,6.9,-,N/A,,Clear,170,2013-02-23 23:54:00
6:54 PM,28.0,17.1,63,29.95,10.0,South,8.1,-,N/A,,Clear,170,2013-02-24 00:54:00
7:54 PM,26.1,17.1,69,29.95,10.0,SSE,5.8,-,N/A,,Clear,150,2013-02-24 01:54:00
8:54 PM,28.0,17.1,63,29.96,10.0,SE,4.6,-,N/A,,Clear,130,2013-02-24 02:54:00
9:54 PM,24.8,15.8,69,29.94,10.0,SSE,6.9,-,N/A,,Clear,160,2013-02-24 03:54:00
10:54 PM,23.0,15.1,72,29.97,10.0,SSE,6.9,-,N/A,,Clear,150,2013-02-24 04:54:00
11:54 PM,23.0,15.1,72,29.97,10.0,SE,6.9,-,N/A,,Clear,140,2013-02-24 05:54:00